Metar z pełnej godziny Komunikat METAR ze strony awiacja.imgw.pl Metar G00 EPPO METAR EPPO 292000Z 03005KT CAVOK 11/02 Q1024 =